createdAt,value
2022-10-05T00:01:03.938Z,13.88
2022-10-05T00:03:35.521Z,13.94
2022-10-05T00:06:02.578Z,13.72
2022-10-05T00:08:35.484Z,13.44
2022-10-05T00:11:02.526Z,13.62
2022-10-05T00:13:31.193Z,13.80
2022-10-05T00:16:16.391Z,13.87
2022-10-05T00:18:47.547Z,13.69
2022-10-05T00:21:18.832Z,13.66
2022-10-05T00:23:45.939Z,13.23
2022-10-05T00:26:21.078Z,13.70
2022-10-05T00:28:48.078Z,13.56
2022-10-05T00:31:21.460Z,13.89
2022-10-05T00:33:48.271Z,13.73
2022-10-05T00:36:15.285Z,13.65
2022-10-05T00:38:42.877Z,13.89
2022-10-05T00:41:54.112Z,14.05
2022-10-05T00:44:29.516Z,14.04
2022-10-05T00:47:43.662Z,13.95
2022-10-05T00:50:44.459Z,13.72
2022-10-05T00:53:32.297Z,13.96
2022-10-05T00:56:20.089Z,13.69
2022-10-05T00:58:52.707Z,13.63
2022-10-05T01:01:47.247Z,13.73
2022-10-05T01:04:32.544Z,13.52
2022-10-05T01:07:02.230Z,13.80
2022-10-05T01:09:41.020Z,13.91
2022-10-05T01:12:36.148Z,13.80
2022-10-05T01:15:12.297Z,13.74
2022-10-05T01:18:06.601Z,13.79
2022-10-05T01:21:05.287Z,13.65
2022-10-05T01:23:47.445Z,13.46
2022-10-05T01:26:41.768Z,12.96
2022-10-05T01:29:31.499Z,13.43
2022-10-05T01:32:13.411Z,13.43
2022-10-05T01:34:43.404Z,13.30
2022-10-05T01:37:22.803Z,13.27
2022-10-05T01:40:12.115Z,13.23
2022-10-05T01:43:25.203Z,13.20
2022-10-05T01:46:23.443Z,13.07
2022-10-05T01:48:59.326Z,13.19
2022-10-05T01:51:40.914Z,13.08
2022-10-05T01:54:52.620Z,13.34
2022-10-05T01:57:56.636Z,13.38
2022-10-05T02:00:23.577Z,13.37
2022-10-05T02:02:56.149Z,13.35
2022-10-05T02:05:52.832Z,13.36
2022-10-05T02:08:31.261Z,13.28
2022-10-05T02:11:07.351Z,13.51
2022-10-05T02:13:44.305Z,13.48
2022-10-05T02:16:34.362Z,13.48
2022-10-05T02:19:42.344Z,13.54
2022-10-05T02:22:15.814Z,13.67
2022-10-05T02:24:48.310Z,13.47
2022-10-05T02:27:24.518Z,13.65
2022-10-05T02:29:56.874Z,13.59
2022-10-05T02:32:27.328Z,13.76
2022-10-05T02:35:01.693Z,13.78
2022-10-05T02:37:34.839Z,13.46
2022-10-05T02:40:08.948Z,14.03
2022-10-05T02:43:08.125Z,14.03
2022-10-05T02:45:56.086Z,14.02
2022-10-05T02:48:58.866Z,13.96
2022-10-05T02:51:40.676Z,14.32
2022-10-05T02:54:25.786Z,14.18
2022-10-05T02:57:06.778Z,14.10
2022-10-05T02:59:33.530Z,14.45
2022-10-05T03:02:18.211Z,14.15
2022-10-05T03:05:30.913Z,14.30
2022-10-05T03:08:14.796Z,14.52
2022-10-05T03:10:59.533Z,14.72
2022-10-05T03:13:45.338Z,14.70
2022-10-05T03:16:34.338Z,14.86
2022-10-05T03:19:19.745Z,14.79
2022-10-05T03:22:01.248Z,14.74
2022-10-05T03:24:36.369Z,14.77
2022-10-05T03:27:24.881Z,14.89
2022-10-05T03:30:18.395Z,15.03
2022-10-05T03:33:21.827Z,15.03
2022-10-05T03:35:48.416Z,14.94
2022-10-05T03:38:21.938Z,14.96
2022-10-05T03:41:06.376Z,14.58
2022-10-05T03:43:59.485Z,14.73
2022-10-05T03:47:03.588Z,14.99
2022-10-05T03:49:45.496Z,15.01
2022-10-05T03:52:15.158Z,14.93
2022-10-05T03:54:48.629Z,14.54
2022-10-05T03:57:21.898Z,14.87
2022-10-05T03:59:51.588Z,14.90
2022-10-05T04:02:27.387Z,14.60
2022-10-05T04:05:13.046Z,14.81
2022-10-05T04:07:46.971Z,14.65
2022-10-05T04:10:21.900Z,14.50
2022-10-05T04:13:09.265Z,14.33
2022-10-05T04:15:41.937Z,14.55
2022-10-05T04:18:25.647Z,14.43
2022-10-05T04:20:59.032Z,14.16
2022-10-05T04:23:48.556Z,14.37
2022-10-05T04:26:21.963Z,14.00
2022-10-05T04:29:18.688Z,14.50
2022-10-05T04:31:45.388Z,14.51
2022-10-05T04:34:30.823Z,14.53
2022-10-05T04:37:07.006Z,14.60
2022-10-05T04:40:08.607Z,14.48
2022-10-05T04:42:48.309Z,14.53
2022-10-05T04:45:45.527Z,14.56
2022-10-05T04:48:27.275Z,14.56
2022-10-05T04:51:14.193Z,14.62
2022-10-05T04:53:51.428Z,14.53
2022-10-05T04:56:36.343Z,14.60
2022-10-05T04:59:25.002Z,14.53
2022-10-05T05:02:10.116Z,14.51
2022-10-05T05:04:59.639Z,14.30
2022-10-05T05:07:41.238Z,14.21
2022-10-05T05:10:29.259Z,14.09
2022-10-05T05:13:33.438Z,14.07
2022-10-05T05:16:40.574Z,14.08
2022-10-05T05:19:12.976Z,13.61
2022-10-05T05:21:49.930Z,13.74
2022-10-05T05:24:39.079Z,13.75
2022-10-05T05:27:24.185Z,13.76
2022-10-05T05:30:07.392Z,13.73
2022-10-05T05:33:11.819Z,13.54
2022-10-05T05:36:04.730Z,13.43
2022-10-05T05:38:50.606Z,13.25
2022-10-05T05:41:34.718Z,13.23
2022-10-05T05:44:21.680Z,13.15
2022-10-05T05:47:17.833Z,12.73
2022-10-05T05:50:07.435Z,12.97
2022-10-05T05:52:41.159Z,12.69
2022-10-05T05:55:13.725Z,12.76
2022-10-05T05:58:03.701Z,12.76
2022-10-05T06:01:05.303Z,12.50
2022-10-05T06:04:22.847Z,12.14
2022-10-05T06:10:12.757Z,12.13
2022-10-05T06:12:44.269Z,11.57
2022-10-05T06:15:20.343Z,11.36
2022-10-05T06:17:52.884Z,11.01
2022-10-05T06:20:36.209Z,11.36
2022-10-05T06:23:09.405Z,11.41
2022-10-05T06:25:38.977Z,11.60
2022-10-05T06:28:10.201Z,11.31
2022-10-05T06:30:55.877Z,11.23
2022-10-05T06:33:42.575Z,10.90
2022-10-05T06:36:12.440Z,10.80
2022-10-05T06:39:27.888Z,11.14
2022-10-05T06:42:27.520Z,11.02
2022-10-05T06:45:18.087Z,11.04
2022-10-05T06:47:55.019Z,11.40
2022-10-05T06:50:42.653Z,11.74
2022-10-05T06:53:35.856Z,11.89
2022-10-05T06:56:33.935Z,11.89
2022-10-05T06:59:39.133Z,11.55
2022-10-05T07:02:45.360Z,12.13
2022-10-05T07:05:42.642Z,12.21
2022-10-05T07:08:12.111Z,12.29
2022-10-05T07:11:09.595Z,12.10
2022-10-05T07:14:03.318Z,12.45
2022-10-05T07:16:49.079Z,12.49
2022-10-05T07:19:18.402Z,12.28
2022-10-05T07:22:15.507Z,12.14
2022-10-05T07:31:15.031Z,12.40
2022-10-05T07:34:05.982Z,12.11
2022-10-05T07:36:55.869Z,12.33
2022-10-05T07:39:59.059Z,12.26
2022-10-05T07:42:49.134Z,12.46
2022-10-05T07:45:32.490Z,12.22
2022-10-05T07:48:15.793Z,12.23
2022-10-05T07:51:12.085Z,12.48
2022-10-05T07:54:00.822Z,12.17
2022-10-05T07:56:40.424Z,12.06
2022-10-05T07:59:37.909Z,11.99
2022-10-05T08:43:35.483Z,12.59
2022-10-05T08:46:30.140Z,12.62
2022-10-05T08:49:12.060Z,12.72
2022-10-05T08:51:50.821Z,12.22
2022-10-05T08:54:39.335Z,12.53
2022-10-05T08:57:42.778Z,12.35
2022-10-05T09:00:23.420Z,12.45
2022-10-05T09:03:05.341Z,12.13
2022-10-05T09:05:54.757Z,12.62
2022-10-05T09:08:40.252Z,12.74
2022-10-05T09:11:21.091Z,12.27
2022-10-05T09:13:50.923Z,11.97
2022-10-05T09:19:43.995Z,12.27
2022-10-05T09:22:30.368Z,12.21
2022-10-05T09:25:04.088Z,12.11
2022-10-05T09:27:35.590Z,12.05
2022-10-05T09:30:24.545Z,12.36
2022-10-05T09:33:06.584Z,12.38
2022-10-05T09:36:01.011Z,12.50
2022-10-05T10:22:09.501Z,12.91
2022-10-05T10:25:19.285Z,12.66
2022-10-05T10:27:57.907Z,12.88
2022-10-05T10:30:58.847Z,13.02
2022-10-05T11:42:06.768Z,13.56
2022-10-05T11:45:02.849Z,13.75
2022-10-05T11:47:35.816Z,12.94
2022-10-05T11:53:29.360Z,13.60
2022-10-05T11:56:19.565Z,13.11
2022-10-05T11:59:21.038Z,13.54
2022-10-05T12:02:13.570Z,13.44
2022-10-05T12:04:58.964Z,13.30
2022-10-05T12:08:00.847Z,13.22
2022-10-05T12:10:46.687Z,13.65
2022-10-05T12:13:13.590Z,13.35
2022-10-05T12:16:05.085Z,13.72
2022-10-05T12:18:31.714Z,13.51
2022-10-05T12:21:23.000Z,13.71
2022-10-05T12:24:15.572Z,13.82
2022-10-05T12:26:55.389Z,13.68
2022-10-05T12:30:07.182Z,13.97
2022-10-05T12:32:41.419Z,14.05
2022-10-05T12:35:43.583Z,14.34
2022-10-05T12:38:32.479Z,14.10
2022-10-05T12:40:59.054Z,14.35
2022-10-05T12:43:47.593Z,14.11
2022-10-05T12:46:35.897Z,14.28
2022-10-05T12:49:18.567Z,14.35
2022-10-05T12:52:08.406Z,14.02
2022-10-05T12:54:47.144Z,14.31
2022-10-05T12:57:42.288Z,14.57
2022-10-05T13:00:13.202Z,14.45
2022-10-05T13:02:41.983Z,14.43
2022-10-05T13:05:11.842Z,14.22
2022-10-05T13:07:57.307Z,14.03
2022-10-05T13:10:42.793Z,13.96
2022-10-05T13:13:15.723Z,13.99
2022-10-05T13:15:51.183Z,14.11
2022-10-05T13:18:33.946Z,14.16
2022-10-05T13:21:13.098Z,14.22
2022-10-05T13:23:46.041Z,14.36
2022-10-05T13:26:20.819Z,14.20
2022-10-05T13:28:57.591Z,14.21
2022-10-05T13:31:33.100Z,14.19
2022-10-05T13:34:22.809Z,14.37
2022-10-05T13:37:21.115Z,14.35
2022-10-05T13:39:56.960Z,14.43
2022-10-05T13:43:00.040Z,14.54
2022-10-05T13:45:32.045Z,14.15
2022-10-05T13:48:15.492Z,14.50
2022-10-05T13:50:54.460Z,14.23
2022-10-05T13:53:37.147Z,14.27
2022-10-05T13:56:19.033Z,14.65
2022-10-05T13:59:15.048Z,14.40
2022-10-05T14:01:49.792Z,14.31
2022-10-05T14:04:21.180Z,14.40
2022-10-05T14:06:49.370Z,14.73
2022-10-05T14:09:25.526Z,14.73
2022-10-05T14:12:14.544Z,14.50
2022-10-05T14:14:49.271Z,14.83
2022-10-05T14:17:32.122Z,15.18
2022-10-05T14:20:03.075Z,14.75
2022-10-05T14:22:29.879Z,14.70
2022-10-05T14:25:02.579Z,14.78
2022-10-05T14:27:33.489Z,15.00
2022-10-05T14:30:12.459Z,14.99
2022-10-05T14:33:05.470Z,14.88
2022-10-05T14:35:51.587Z,15.01
2022-10-05T14:38:29.964Z,14.83
2022-10-05T14:41:04.138Z,15.07
2022-10-05T14:43:31.272Z,14.64
2022-10-05T14:46:05.211Z,14.96
2022-10-05T14:48:43.830Z,15.08
2022-10-05T14:51:14.047Z,14.78
2022-10-05T14:53:56.074Z,14.91
2022-10-05T14:56:41.615Z,15.03
2022-10-05T14:59:11.460Z,15.02
2022-10-05T15:01:51.357Z,14.81
2022-10-05T15:04:30.633Z,15.02
2022-10-05T15:07:23.045Z,14.76
2022-10-05T15:10:22.720Z,14.91
2022-10-05T15:12:52.058Z,14.45
2022-10-05T15:15:34.664Z,14.75
2022-10-05T15:18:06.662Z,14.36
2022-10-05T15:20:46.801Z,14.58
2022-10-05T15:23:23.860Z,14.78
2022-10-05T15:26:01.351Z,14.52
2022-10-05T15:28:48.533Z,14.69
2022-10-05T15:31:42.078Z,14.39
2022-10-05T15:34:41.596Z,14.30
2022-10-05T15:37:26.332Z,14.06
2022-10-05T15:39:57.224Z,14.05
2022-10-05T15:42:43.301Z,14.19
2022-10-05T15:45:32.614Z,14.33
2022-10-05T15:48:05.553Z,14.24
2022-10-05T15:50:42.196Z,14.28
2022-10-05T15:53:17.654Z,14.34
2022-10-05T15:56:03.950Z,14.03
2022-10-05T15:58:33.690Z,14.21
2022-10-05T16:01:20.580Z,14.20
2022-10-05T16:03:58.052Z,13.65
2022-10-05T16:06:49.697Z,14.00
2022-10-05T16:09:43.302Z,14.13
2022-10-05T16:12:48.654Z,13.96
2022-10-05T16:15:26.419Z,13.73
2022-10-05T16:18:40.769Z,13.85
2022-10-05T16:21:09.748Z,13.94
2022-10-05T16:23:52.384Z,13.89
2022-10-05T16:26:38.720Z,13.89
2022-10-05T16:29:17.610Z,13.84
2022-10-05T16:32:12.801Z,13.33
2022-10-05T16:35:15.141Z,13.67
2022-10-05T16:37:48.842Z,13.78
2022-10-05T16:41:01.058Z,13.83
2022-10-05T16:43:49.996Z,13.33
2022-10-05T16:46:36.981Z,13.50
2022-10-05T16:49:30.419Z,13.23
2022-10-05T16:51:59.271Z,13.52
2022-10-05T16:54:47.703Z,13.52
2022-10-05T16:57:25.567Z,13.17
2022-10-05T17:00:04.333Z,13.27
2022-10-05T17:03:03.544Z,13.51
2022-10-05T17:05:55.864Z,13.45
2022-10-05T17:08:49.891Z,13.22
2022-10-05T17:11:22.816Z,12.96
2022-10-05T17:14:19.020Z,13.18
2022-10-05T17:17:00.375Z,13.29
2022-10-05T17:20:07.186Z,13.22
2022-10-05T17:22:39.982Z,12.84
2022-10-05T17:25:16.234Z,12.75
2022-10-05T17:28:15.185Z,13.03
2022-10-05T17:30:54.328Z,13.10
2022-10-05T17:33:31.872Z,13.11
2022-10-05T17:36:06.428Z,13.03
2022-10-05T17:38:36.188Z,12.99
2022-10-05T17:41:13.503Z,13.14
2022-10-05T17:43:45.358Z,13.06
2022-10-05T17:46:12.857Z,12.83
2022-10-05T17:48:44.993Z,12.59
2022-10-05T17:51:48.576Z,12.86
2022-10-05T17:54:48.193Z,12.61
2022-10-05T17:57:28.093Z,12.35
2022-10-05T17:59:57.773Z,12.72
2022-10-05T18:02:42.767Z,11.86
2022-10-05T18:05:12.666Z,12.70
2022-10-05T18:07:42.016Z,12.61
2022-10-05T18:10:13.053Z,12.76
2022-10-05T18:12:46.121Z,11.86
2022-10-05T18:15:37.962Z,12.45
2022-10-05T18:18:43.484Z,11.96
2022-10-05T18:21:24.626Z,12.40
2022-10-05T18:23:54.674Z,12.31
2022-10-05T18:26:24.500Z,12.66
2022-10-05T18:29:44.372Z,12.61
2022-10-05T18:32:43.421Z,12.07
2022-10-05T18:35:20.437Z,11.63
2022-10-05T18:41:24.968Z,12.09
2022-10-05T18:44:00.950Z,12.08
2022-10-05T18:46:35.929Z,11.96
2022-10-05T18:49:29.013Z,11.20
2022-10-05T18:52:09.940Z,11.75
2022-10-05T18:55:21.933Z,11.56
2022-10-05T18:58:04.183Z,11.66
2022-10-05T19:00:53.001Z,11.61
2022-10-05T19:03:43.485Z,11.53
2022-10-05T19:06:27.026Z,11.35
2022-10-05T19:09:14.512Z,11.34
2022-10-05T19:12:14.377Z,11.35
2022-10-05T19:15:09.174Z,11.29
2022-10-05T19:17:48.108Z,11.16
2022-10-05T19:20:25.878Z,11.11
2022-10-05T19:22:52.750Z,11.35
2022-10-05T19:25:19.409Z,10.95
2022-10-05T19:28:00.735Z,11.20
2022-10-05T19:30:57.759Z,11.14
2022-10-05T19:33:29.166Z,11.23
2022-10-05T19:36:08.251Z,10.88
2022-10-05T19:38:58.627Z,10.76
2022-10-05T19:41:43.904Z,10.35
2022-10-05T19:44:16.702Z,10.60
2022-10-05T19:46:53.571Z,10.84
2022-10-05T19:49:46.518Z,10.95
2022-10-05T19:52:44.224Z,10.48
2022-10-05T19:55:31.329Z,10.60
2022-10-05T19:58:02.788Z,10.58
2022-10-05T20:00:35.487Z,10.75
2022-10-05T20:03:16.885Z,10.60
2022-10-05T20:05:44.350Z,10.54
2022-10-05T20:08:17.239Z,10.55
2022-10-05T20:10:45.323Z,10.79
2022-10-05T20:13:21.270Z,10.57
2022-10-05T20:16:35.827Z,10.61
2022-10-05T20:19:24.460Z,10.54
2022-10-05T20:22:04.523Z,10.30
2022-10-05T20:24:49.961Z,10.55
2022-10-05T20:27:49.219Z,10.48
2022-10-05T20:30:18.426Z,10.59
2022-10-05T20:32:50.124Z,10.57
2022-10-05T20:35:22.274Z,10.47
2022-10-05T20:37:50.104Z,10.20
2022-10-05T20:40:18.859Z,10.04
2022-10-05T20:42:45.946Z,10.25
2022-10-05T20:45:13.596Z,10.39
2022-10-05T20:47:40.671Z,10.19
2022-10-05T20:50:09.637Z,10.45
2022-10-05T20:52:40.190Z,10.15
2022-10-05T20:55:10.015Z,10.50
2022-10-05T20:57:42.148Z,10.02
2022-10-05T21:00:12.893Z,10.00
2022-10-05T21:02:39.650Z,10.40
2022-10-05T21:05:07.732Z,10.44
2022-10-05T21:07:34.607Z,10.57
2022-10-05T21:10:02.457Z,10.57
2022-10-05T21:12:29.191Z,10.71
2022-10-05T21:14:55.854Z,10.92
2022-10-05T21:17:22.545Z,10.91
2022-10-05T21:19:49.344Z,10.88
2022-10-05T21:22:16.081Z,10.73
2022-10-05T21:24:42.761Z,10.76
2022-10-05T21:27:10.299Z,11.05
2022-10-05T21:29:37.346Z,10.99
2022-10-05T21:32:08.739Z,10.68
2022-10-05T21:34:35.579Z,10.87
2022-10-05T21:37:02.223Z,10.92
2022-10-05T21:39:28.960Z,10.44
2022-10-05T21:41:56.379Z,10.58
2022-10-05T21:44:23.051Z,10.66
2022-10-05T21:46:49.872Z,10.84
2022-10-05T21:49:19.549Z,10.77
2022-10-05T21:51:47.347Z,11.04
2022-10-05T21:54:17.480Z,10.72
2022-10-05T21:56:51.048Z,10.89
2022-10-05T21:59:20.546Z,10.67
2022-10-05T22:01:47.405Z,10.58
2022-10-05T22:04:15.160Z,10.87
2022-10-05T22:06:41.884Z,10.86
2022-10-05T22:09:08.624Z,10.75
2022-10-05T22:11:35.331Z,10.98
2022-10-05T22:14:04.791Z,10.90
2022-10-05T22:16:37.455Z,11.08
2022-10-05T22:19:05.940Z,10.75
2022-10-05T22:21:37.940Z,10.92
2022-10-05T22:24:04.977Z,10.58
2022-10-05T22:26:31.904Z,10.61
2022-10-05T22:28:58.803Z,10.78
2022-10-05T22:31:25.561Z,10.28
2022-10-05T22:33:52.366Z,10.25
2022-10-05T22:36:19.561Z,10.06
2022-10-05T22:38:47.681Z,10.31
2022-10-05T22:41:18.467Z,10.46
2022-10-05T22:43:48.791Z,10.12
2022-10-05T22:46:16.088Z,10.14
2022-10-05T22:48:43.305Z,10.39
2022-10-05T22:51:10.216Z,10.30
2022-10-05T22:53:37.016Z,10.37
2022-10-05T22:56:06.301Z,10.51
2022-10-05T22:58:33.018Z,10.53
2022-10-05T23:01:12.509Z,10.43
2022-10-05T23:03:39.816Z,10.24
2022-10-05T23:06:09.672Z,10.35
2022-10-05T23:08:37.896Z,10.34
2022-10-05T23:11:08.598Z,10.49
2022-10-05T23:13:35.804Z,10.23
2022-10-05T23:16:14.311Z,9.88
2022-10-05T23:18:42.412Z,10.27
2022-10-05T23:21:10.706Z,10.18
2022-10-05T23:23:43.111Z,10.20
2022-10-05T23:26:11.562Z,10.29
2022-10-05T23:28:47.272Z,10.01
2022-10-05T23:31:16.806Z,10.16
2022-10-05T23:33:43.895Z,10.43
2022-10-05T23:36:22.245Z,10.27
2022-10-05T23:38:49.606Z,10.38
2022-10-05T23:41:17.430Z,10.34
2022-10-05T23:43:44.110Z,10.36
2022-10-05T23:46:10.967Z,10.40
2022-10-05T23:48:38.348Z,10.31
2022-10-05T23:51:06.836Z,9.98
2022-10-05T23:53:34.113Z,10.52
2022-10-05T23:56:01.008Z,10.19
2022-10-05T23:58:28.059Z,10.47
